Time;durP1;ratioP1;P1;durP2;ratioP2;P2;SDS_P1;SDS_P2;PMS_P1;PMS_P2;Temp;Humidity;BMP_temperature;BMP_pressure;BME280_temperature;BME280_humidity;BME280_pressure;Samples;Min_cycle;Max_cycle;Signal;HPM_P1;HPM_P2
2022/05/03 00:00:22;;;;;;;10.35;7.50;;;6.60;99.90;;;;;;4983110;28;20181;-80
2022/05/03 00:03:08;;;;;;;9.82;8.63;;;6.60;99.90;;;;;;4995747;28;20061;-79
2022/05/03 00:05:50;;;;;;;10.20;8.23;;;6.60;99.90;;;;;;4966219;28;20528;-79
2022/05/03 00:08:35;;;;;;;11.15;8.15;;;6.60;99.90;;;;;;4980517;28;20043;-78
2022/05/03 00:11:47;;;;;;;9.88;7.82;;;6.60;99.90;;;;;;4969385;28;20058;-79
2022/05/03 00:14:33;;;;;;;10.55;8.23;;;6.60;99.90;;;;;;4880266;29;20552;-78
2022/05/03 00:17:00;;;;;;;10.00;8.13;;;6.60;99.90;;;;;;4905748;29;20209;-79
2022/05/03 00:19:27;;;;;;;9.00;7.57;;;6.60;99.90;;;;;;4864326;29;20083;-79
2022/05/03 00:21:53;;;;;;;10.45;8.05;;;6.60;99.90;;;;;;4880835;29;20047;-78
2022/05/03 00:24:19;;;;;;;10.85;7.47;;;6.60;99.90;;;;;;4880940;29;20044;-78
2022/05/03 00:26:46;;;;;;;7.38;6.68;;;6.50;99.90;;;;;;4891817;29;20075;-79
2022/05/03 00:29:16;;;;;;;11.55;7.78;;;6.50;99.90;;;;;;4874863;29;20044;-80
2022/05/03 00:31:43;;;;;;;7.90;6.97;;;6.50;99.90;;;;;;4876752;29;20123;-79
2022/05/03 00:34:10;;;;;;;8.40;7.20;;;6.50;99.90;;;;;;4892233;29;20071;-79
2022/05/03 00:36:36;;;;;;;8.13;6.90;;;6.60;99.90;;;;;;4878865;29;20072;-79
2022/05/03 00:39:02;;;;;;;9.20;6.88;;;6.50;99.90;;;;;;4882483;29;20488;-78
2022/05/03 00:41:33;;;;;;;10.75;6.78;;;6.50;99.90;;;;;;4875078;29;20348;-79
2022/05/03 00:44:56;;;;;;;8.10;6.88;;;6.40;99.90;;;;;;4893759;28;20048;-76
2022/05/03 00:47:52;;;;;;;8.57;6.70;;;6.40;99.90;;;;;;4915493;29;20059;-75
2022/05/03 00:50:33;;;;;;;7.25;6.55;;;6.40;99.90;;;;;;4911595;29;20051;-78
2022/05/03 00:53:10;;;;;;;8.10;6.60;;;6.40;99.90;;;;;;4903169;29;20032;-78
2022/05/03 00:55:54;;;;;;;9.60;6.55;;;6.30;99.90;;;;;;4909216;29;20036;-77
2022/05/03 00:58:48;;;;;;;7.47;6.45;;;6.30;99.90;;;;;;4892822;29;21590;-78
2022/05/03 01:01:27;;;;;;;6.20;5.60;;;6.20;99.90;;;;;;4916312;29;20223;-78
2022/05/03 01:04:08;;;;;;;5.32;4.80;;;6.20;99.90;;;;;;4912413;29;20055;-78
2022/05/03 01:07:01;;;;;;;6.00;5.30;;;6.20;99.90;;;;;;4911893;29;20454;-78
2022/05/03 01:09:42;;;;;;;5.18;4.72;;;6.10;99.90;;;;;;4913569;29;20062;-79
2022/05/03 01:12:29;;;;;;;6.18;5.10;;;6.10;99.90;;;;;;4892964;29;21682;-78
2022/05/03 01:15:22;;;;;;;5.65;5.07;;;6.00;99.90;;;;;;4915664;29;20075;-79
2022/05/03 01:18:21;;;;;;;6.55;5.30;;;6.00;99.90;;;;;;4910908;29;20048;-79
2022/05/03 01:20:58;;;;;;;7.10;5.80;;;5.90;99.90;;;;;;4902710;29;20073;-78
2022/05/03 01:24:18;;;;;;;5.93;5.32;;;5.90;99.90;;;;;;4928176;28;20057;-78
2022/05/03 01:26:44;;;;;;;7.20;5.43;;;5.90;99.90;;;;;;4868246;29;20039;-78
2022/05/03 01:29:15;;;;;;;6.47;5.85;;;5.90;99.90;;;;;;4867867;29;20057;-78
2022/05/03 01:31:42;;;;;;;6.72;5.40;;;5.80;99.90;;;;;;4884503;29;20040;-78
2022/05/03 01:34:12;;;;;;;8.77;6.10;;;5.80;99.90;;;;;;4873773;29;20074;-78
2022/05/03 01:37:00;;;;;;;7.45;6.75;;;5.80;99.90;;;;;;4873227;29;20188;-79
2022/05/03 01:40:04;;;;;;;6.78;6.03;;;5.90;99.90;;;;;;4857025;29;20204;-79
2022/05/03 01:43:03;;;;;;;6.95;6.25;;;5.80;99.90;;;;;;4886166;29;20512;-77
2022/05/03 01:45:53;;;;;;;10.00;7.30;;;5.80;99.90;;;;;;4868724;29;20052;-78
2022/05/03 01:51:29;;;;;;;7.28;6.35;;;5.70;99.90;;;;;;4868348;29;20145;-78
2022/05/03 01:54:16;;;;;;;7.97;6.32;;;5.70;99.90;;;;;;4884752;29;20053;-77
2022/05/03 01:57:22;;;;;;;7.72;5.90;;;5.70;99.90;;;;;;4885453;29;20165;-77
2022/05/03 02:00:08;;;;;;;8.40;7.03;;;5.60;99.90;;;;;;4880740;28;20040;-79
2022/05/03 02:03:03;;;;;;;7.70;6.57;;;5.50;99.90;;;;;;4965991;28;20046;-77
2022/05/03 02:06:03;;;;;;;9.40;7.03;;;5.50;99.90;;;;;;4968013;28;20109;-78
2022/05/03 02:09:08;;;;;;;9.80;7.13;;;5.50;99.90;;;;;;4969480;28;20069;-77
2022/05/03 02:11:47;;;;;;;9.45;8.15;;;5.50;99.90;;;;;;4972279;28;20133;-77
2022/05/03 02:17:27;;;;;;;10.90;8.98;;;5.50;99.90;;;;;;4990773;28;20125;-77
2022/05/03 02:20:12;;;;;;;10.85;8.32;;;5.60;99.90;;;;;;4953140;28;20050;-79
2022/05/03 02:22:44;;;;;;;8.85;7.68;;;5.60;99.90;;;;;;4954861;28;20442;-79
2022/05/03 02:25:46;;;;;;;13.13;8.27;;;5.60;99.90;;;;;;4983809;28;20525;-78
2022/05/03 02:28:26;;;;;;;10.07;7.90;;;5.60;99.90;;;;;;4962816;28;20050;-78
2022/05/03 02:30:54;;;;;;;8.60;7.38;;;5.60;99.90;;;;;;4972956;28;20054;-78
2022/05/03 02:33:31;;;;;;;8.40;7.50;;;5.60;99.90;;;;;;4988858;28;20065;-78
2022/05/03 02:35:58;;;;;;;10.30;7.90;;;5.70;99.90;;;;;;4969381;28;20031;-79
2022/05/03 02:38:36;;;;;;;8.10;7.07;;;5.70;99.90;;;;;;4953794;28;20121;-79
2022/05/03 02:41:03;;;;;;;8.60;7.70;;;5.70;99.90;;;;;;4974348;28;20042;-80
2022/05/03 02:43:31;;;;;;;10.52;9.25;;;5.80;99.90;;;;;;4970190;28;20039;-80
2022/05/03 02:46:17;;;;;;;13.25;10.60;;;5.80;99.90;;;;;;4952720;28;20046;-77
2022/05/03 02:48:59;;;;;;;12.75;10.68;;;5.90;99.90;;;;;;4957192;28;20449;-80
2022/05/03 02:51:33;;;;;;;12.90;10.43;;;6.20;99.90;;;;;;4964370;28;20057;-79
2022/05/03 02:54:14;;;;;;;13.73;11.30;;;6.00;99.90;;;;;;4966445;28;20077;-78
2022/05/03 02:56:51;;;;;;;13.73;11.15;;;6.10;99.90;;;;;;4961556;28;20138;-79
2022/05/03 02:59:23;;;;;;;15.35;11.77;;;6.20;99.90;;;;;;4953907;28;20042;-78
2022/05/03 03:02:14;;;;;;;15.93;12.85;;;6.30;99.90;;;;;;4969959;28;20133;-78
2022/05/03 03:05:19;;;;;;;13.30;11.52;;;6.30;99.90;;;;;;4940014;28;20108;-79
2022/05/03 03:07:50;;;;;;;15.02;12.23;;;6.30;99.90;;;;;;4943810;28;20054;-77
2022/05/03 03:10:33;;;;;;;16.23;12.43;;;6.90;99.90;;;;;;4952979;28;20042;-79
2022/05/03 03:13:15;;;;;;;17.02;13.30;;;6.50;99.90;;;;;;4957392;28;20046;-79
2022/05/03 03:15:42;;;;;;;14.75;11.88;;;6.50;99.90;;;;;;4963074;28;20258;-79
2022/05/03 03:18:16;;;;;;;14.35;12.13;;;6.60;99.90;;;;;;4970102;28;20113;-77
2022/05/03 03:20:45;;;;;;;16.70;13.63;;;6.50;99.90;;;;;;4973237;28;20042;-78
2022/05/03 03:23:15;;;;;;;18.52;12.05;;;6.60;99.90;;;;;;4955358;28;20047;-78
2022/05/03 03:25:43;;;;;;;17.40;12.63;;;6.60;99.90;;;;;;4962256;28;20053;-79
2022/05/03 03:28:12;;;;;;;13.52;11.00;;;6.60;99.90;;;;;;4946120;28;20062;-79
2022/05/03 03:30:44;;;;;;;14.20;11.25;;;6.60;99.90;;;;;;4945670;28;20046;-78
2022/05/03 03:33:14;;;;;;;14.70;12.10;;;6.60;99.90;;;;;;4947837;28;20501;-78
2022/05/03 03:35:44;;;;;;;15.23;12.52;;;6.60;99.90;;;;;;4968924;28;20409;-79
2022/05/03 03:38:12;;;;;;;15.27;12.68;;;6.60;99.90;;;;;;4979689;28;20192;-78
2022/05/03 03:40:39;;;;;;;16.50;12.65;;;6.70;99.90;;;;;;4966392;28;20085;-79
2022/05/03 03:43:05;;;;;;;19.10;12.88;;;7.00;99.90;;;;;;4969372;28;20096;-79
2022/05/03 03:45:31;;;;;;;17.17;13.77;;;6.70;99.90;;;;;;4965016;28;20150;-78
2022/05/03 03:48:00;;;;;;;15.95;13.35;;;6.70;99.90;;;;;;4951498;28;20122;-79
2022/05/03 03:50:27;;;;;;;17.75;14.07;;;6.80;99.90;;;;;;4941012;28;20154;-78
2022/05/03 03:52:53;;;;;;;16.10;14.32;;;6.90;99.90;;;;;;4959246;28;20046;-78
2022/05/03 03:55:20;;;;;;;16.48;12.88;;;6.90;99.90;;;;;;4980065;28;20048;-78
2022/05/03 03:57:46;;;;;;;16.23;13.75;;;6.90;99.90;;;;;;4966770;28;20382;-78
2022/05/03 04:00:16;;;;;;;20.77;16.00;;;7.00;99.90;;;;;;4977047;28;20042;-79
2022/05/03 04:02:44;;;;;;;21.65;17.90;;;7.00;99.90;;;;;;4975317;28;20110;-78
2022/05/03 04:05:21;;;;;;;22.58;17.00;;;7.00;99.90;;;;;;4990391;28;20050;-78
2022/05/03 04:07:47;;;;;;;22.65;16.35;;;7.00;99.90;;;;;;4984412;28;20350;-80
2022/05/03 04:10:13;;;;;;;21.73;17.15;;;7.00;99.90;;;;;;4980151;28;20080;-78
2022/05/03 04:12:39;;;;;;;25.23;16.90;;;7.10;99.90;;;;;;4961594;28;20030;-78
2022/05/03 04:15:06;;;;;;;23.88;17.23;;;7.10;99.90;;;;;;4990281;28;20046;-79
2022/05/03 04:17:32;;;;;;;22.20;17.40;;;7.10;99.90;;;;;;4958266;28;20034;-79
2022/05/03 04:19:58;;;;;;;24.55;17.30;;;7.20;99.90;;;;;;4982153;28;20049;-80
2022/05/03 04:22:30;;;;;;;20.13;17.33;;;7.10;99.90;;;;;;4963672;28;20042;-79
2022/05/03 04:24:56;;;;;;;23.70;18.08;;;7.20;99.90;;;;;;4966040;28;20358;-79
2022/05/03 04:27:22;;;;;;;25.90;18.65;;;7.30;99.90;;;;;;4967970;28;20432;-78
2022/05/03 04:29:49;;;;;;;24.92;18.13;;;7.40;99.90;;;;;;4981175;28;20093;-78
2022/05/03 04:32:15;;;;;;;27.48;18.95;;;7.20;99.90;;;;;;4983324;28;20081;-79
2022/05/03 04:34:41;;;;;;;24.10;18.77;;;7.30;99.90;;;;;;4982651;28;20128;-77
2022/05/03 04:37:06;;;;;;;24.58;18.00;;;7.70;99.90;;;;;;4971442;28;20048;-80
2022/05/03 04:39:32;;;;;;;24.75;18.50;;;7.40;99.90;;;;;;4987173;28;20389;-79
2022/05/03 04:41:58;;;;;;;26.80;18.98;;;7.40;99.90;;;;;;4970572;28;20148;-80
2022/05/03 04:44:23;;;;;;;29.55;19.60;;;7.50;99.90;;;;;;4982915;28;20057;-80
2022/05/03 04:46:49;;;;;;;27.42;18.90;;;7.50;99.90;;;;;;4971035;28;20479;-80
2022/05/03 04:49:15;;;;;;;28.98;19.42;;;7.50;99.90;;;;;;4981239;28;20180;-79
2022/05/03 04:51:41;;;;;;;25.48;19.00;;;7.60;99.90;;;;;;4966897;28;20033;-79
2022/05/03 04:54:07;;;;;;;23.90;18.90;;;7.60;99.90;;;;;;4983988;28;20108;-79
2022/05/03 04:56:33;;;;;;;25.35;19.30;;;7.60;99.90;;;;;;4966934;28;20488;-79
2022/05/03 04:58:58;;;;;;;25.75;18.45;;;7.60;99.90;;;;;;4985221;28;20149;-80
2022/05/03 05:01:24;;;;;;;26.30;19.38;;;7.80;99.90;;;;;;4972448;28;20486;-78
2022/05/03 05:03:51;;;;;;;24.20;18.95;;;7.70;99.90;;;;;;4993016;28;20038;-76
2022/05/03 05:06:16;;;;;;;25.60;19.10;;;7.80;99.90;;;;;;4971332;28;20051;-76
2022/05/03 05:08:43;;;;;;;24.58;19.70;;;8.10;99.90;;;;;;4949143;28;20046;-78
2022/05/03 05:11:10;;;;;;;24.00;18.60;;;7.80;99.90;;;;;;4968509;28;20045;-79
2022/05/03 05:13:37;;;;;;;28.20;19.10;;;7.80;99.90;;;;;;4962302;28;20042;-79
2022/05/03 05:16:03;;;;;;;24.70;19.90;;;7.90;99.90;;;;;;4949345;28;20066;-78
2022/05/03 05:18:29;;;;;;;28.80;19.50;;;7.90;99.90;;;;;;4964067;28;20121;-78
2022/05/03 05:20:55;;;;;;;26.38;19.40;;;8.00;99.90;;;;;;4963112;28;21230;-78
2022/05/03 05:23:21;;;;;;;33.30;21.65;;;8.10;99.90;;;;;;4953433;28;20057;-78
2022/05/03 05:25:48;;;;;;;36.53;21.35;;;8.10;99.90;;;;;;4954349;28;20482;-78
2022/05/03 05:28:15;;;;;;;31.17;20.48;;;8.10;99.90;;;;;;4943150;28;20177;-78
2022/05/03 05:30:41;;;;;;;27.40;20.02;;;8.20;99.90;;;;;;4951371;28;20046;-77
2022/05/03 05:33:07;;;;;;;9.68;5.72;;;8.30;99.90;;;;;;4948635;28;20074;-75
2022/05/03 05:35:33;;;;;;;35.50;20.35;;;8.90;99.90;;;;;;4965094;28;20181;-76
2022/05/03 05:37:59;;;;;;;37.00;22.55;;;8.90;99.90;;;;;;4949454;28;20138;-78
2022/05/03 05:40:25;;;;;;;31.15;21.35;;;8.80;99.90;;;;;;4948746;28;20138;-79
2022/05/03 05:42:50;;;;;;;33.65;23.67;;;8.80;99.90;;;;;;4945821;28;20089;-78
2022/05/03 05:45:17;;;;;;;34.13;22.98;;;8.80;99.90;;;;;;4948842;28;20417;-80
2022/05/03 05:47:43;;;;;;;36.05;22.67;;;8.70;99.90;;;;;;4948978;28;20060;-79
2022/05/03 05:50:18;;;;;;;36.90;23.40;;;8.70;99.90;;;;;;4948077;28;20046;-80
2022/05/03 05:55:29;;;;;;;39.72;27.20;;;8.70;99.90;;;;;;4977696;28;20054;-80
2022/05/03 05:57:55;;;;;;;45.45;30.30;;;8.70;99.90;;;;;;4978454;28;20034;-78
2022/05/03 06:00:21;;;;;;;48.95;31.45;;;8.70;99.90;;;;;;4951476;28;20560;-80
2022/05/03 06:02:46;;;;;;;49.55;31.27;;;8.80;99.90;;;;;;4949962;28;20093;-81
2022/05/03 06:05:15;;;;;;;48.63;29.80;;;8.90;99.90;;;;;;4960306;28;20112;-80
2022/05/03 06:07:40;;;;;;;53.05;32.40;;;8.80;99.90;;;;;;4991000;28;20061;-80
2022/05/03 06:10:06;;;;;;;48.88;28.48;;;9.00;99.90;;;;;;4999187;28;20470;-80
2022/05/03 06:12:32;;;;;;;45.92;29.92;;;8.90;99.90;;;;;;4995294;28;20101;-79
2022/05/03 06:14:58;;;;;;;47.55;27.38;;;8.90;99.90;;;;;;4994726;28;20046;-77
2022/05/03 06:17:23;;;;;;;55.58;28.30;;;8.80;99.90;;;;;;5004639;28;20109;-78
2022/05/03 06:19:49;;;;;;;44.67;23.92;;;8.90;99.90;;;;;;4998661;28;20073;-79
2022/05/03 06:22:15;;;;;;;41.53;20.17;;;8.90;99.90;;;;;;5012104;28;20137;-81
2022/05/03 06:24:45;;;;;;;40.65;22.45;;;9.70;99.90;;;;;;4988790;28;20053;-79
2022/05/03 06:27:12;;;;;;;30.77;12.82;;;9.10;99.90;;;;;;4991350;28;20056;-80
2022/05/03 06:29:38;;;;;;;27.48;10.98;;;9.10;99.90;;;;;;5003283;28;20133;-77
2022/05/03 06:32:04;;;;;;;13.07;5.22;;;9.60;99.90;;;;;;4992192;28;20065;-75
2022/05/03 06:34:31;;;;;;;14.15;4.78;;;9.20;99.90;;;;;;5001141;28;20064;-78
2022/05/03 06:36:56;;;;;;;19.67;5.53;;;9.10;99.90;;;;;;5000180;28;20072;-81
2022/05/03 06:39:22;;;;;;;19.23;4.88;;;9.10;99.90;;;;;;4999636;28;20554;-80
2022/05/03 06:41:48;;;;;;;21.13;5.47;;;9.00;99.90;;;;;;4998278;28;20129;-81
2022/05/03 06:44:13;;;;;;;20.48;4.18;;;8.90;99.90;;;;;;5003092;28;20030;-81
2022/05/03 06:46:39;;;;;;;16.60;4.72;;;9.20;99.90;;;;;;4996521;28;20042;-79
2022/05/03 06:49:05;;;;;;;18.25;4.22;;;8.90;99.90;;;;;;5000729;28;20155;-80
2022/05/03 06:51:31;;;;;;;18.65;4.75;;;8.90;99.90;;;;;;4981732;28;20200;-79
2022/05/03 06:53:57;;;;;;;16.42;4.22;;;9.50;99.90;;;;;;4998332;28;20038;-82
2022/05/03 06:56:22;;;;;;;13.57;4.28;;;9.30;99.90;;;;;;5001396;28;20133;-79
2022/05/03 06:58:49;;;;;;;16.48;4.53;;;8.90;99.90;;;;;;5005414;28;20076;-81
2022/05/03 07:01:16;;;;;;;14.77;4.55;;;8.80;99.90;;;;;;4970408;28;20511;-79
2022/05/03 07:03:42;;;;;;;21.40;5.05;;;8.90;99.90;;;;;;4988844;28;20037;-79
2022/05/03 07:06:08;;;;;;;20.50;5.15;;;9.00;99.90;;;;;;4995830;28;20802;-78
2022/05/03 07:08:36;;;;;;;22.40;5.07;;;9.00;99.90;;;;;;4999520;28;20053;-82
2022/05/03 07:11:02;;;;;;;21.52;5.25;;;9.10;99.90;;;;;;4989783;28;20045;-79
2022/05/03 07:13:28;;;;;;;14.32;4.35;;;9.00;99.90;;;;;;5001337;28;20034;-78
2022/05/03 07:15:56;;;;;;;19.48;5.68;;;9.10;99.90;;;;;;4984133;28;20050;-78
2022/05/03 07:23:53;;;;;;;30.52;6.28;;;9.10;99.90;;;;;;5004111;28;20048;-81
2022/05/03 07:26:20;;;;;;;34.10;7.13;;;9.10;99.90;;;;;;5012355;28;20117;-81
2022/05/03 07:28:49;;;;;;;22.60;5.28;;;9.20;99.90;;;;;;5007836;28;20045;-81
2022/05/03 07:31:18;;;;;;;24.00;6.25;;;9.20;99.90;;;;;;5004662;28;20493;-81
2022/05/03 07:33:45;;;;;;;28.75;6.75;;;9.40;99.90;;;;;;5000990;28;20049;-78
2022/05/03 07:36:12;;;;;;;31.13;5.88;;;9.50;99.90;;;;;;4983377;28;20078;-78
2022/05/03 07:38:39;;;;;;;29.75;6.13;;;9.60;99.90;;;;;;4976556;28;20504;-78
2022/05/03 07:41:06;;;;;;;33.53;6.63;;;9.70;99.90;;;;;;4982050;28;20057;-78
2022/05/03 07:43:32;;;;;;;24.95;5.50;;;9.60;99.90;;;;;;4987076;28;20133;-77
2022/05/03 07:46:00;;;;;;;30.45;5.80;;;9.60;99.90;;;;;;4994356;28;20137;-80
2022/05/03 07:49:09;;;;;;;27.30;4.65;;;9.60;99.90;;;;;;5007149;28;20038;-78
2022/05/03 07:51:34;;;;;;;20.35;3.70;;;9.70;99.90;;;;;;5010506;28;20461;-77
2022/05/03 07:54:01;;;;;;;22.83;4.05;;;9.80;99.90;;;;;;5003518;28;20043;-77
2022/05/03 07:56:27;;;;;;;19.48;4.47;;;9.80;99.90;;;;;;5010262;28;20347;-80
2022/05/03 07:58:52;;;;;;;23.48;3.72;;;10.40;99.90;;;;;;4999575;28;20137;-81
2022/05/03 08:01:18;;;;;;;22.02;4.63;;;10.40;99.90;;;;;;5000747;28;20128;-80
2022/05/03 08:03:44;;;;;;;27.23;5.00;;;10.10;99.90;;;;;;5000466;28;20141;-82
2022/05/03 08:06:09;;;;;;;24.45;5.18;;;10.20;99.90;;;;;;5004336;28;20054;-81
2022/05/03 08:08:35;;;;;;;18.88;4.60;;;10.20;99.90;;;;;;4994557;28;20046;-78
2022/05/03 08:11:01;;;;;;;22.35;4.45;;;10.30;99.90;;;;;;4989825;28;20046;-80
2022/05/03 08:13:26;;;;;;;22.73;4.63;;;10.30;99.90;;;;;;5013614;28;20144;-79
2022/05/03 08:15:52;;;;;;;19.85;4.22;;;10.30;99.90;;;;;;4980206;28;20137;-80
2022/05/03 08:18:18;;;;;;;25.00;4.07;;;10.80;99.90;;;;;;5000977;28;20037;-77
2022/05/03 08:20:43;;;;;;;18.80;3.88;;;10.20;99.90;;;;;;4987220;28;20049;-81
2022/05/03 08:23:09;;;;;;;24.98;4.05;;;10.30;99.90;;;;;;4978021;28;20477;-77
2022/05/03 08:25:37;;;;;;;21.48;3.33;;;10.40;99.90;;;;;;4983083;28;20046;-78
2022/05/03 08:28:03;;;;;;;16.58;3.65;;;10.40;99.90;;;;;;4990027;28;20057;-80
2022/05/03 08:30:30;;;;;;;19.60;3.90;;;10.40;99.90;;;;;;5001262;28;20054;-81
2022/05/03 08:33:26;;;;;;;25.13;4.20;;;10.50;99.90;;;;;;5002114;28;20145;-83
2022/05/03 08:35:53;;;;;;;19.90;3.58;;;10.50;99.90;;;;;;5001386;28;20033;-79
2022/05/03 08:43:48;;;;;;;20.05;3.50;;;10.30;99.90;;;;;;5006414;28;20053;-78
2022/05/03 08:46:15;;;;;;;16.45;3.42;;;10.30;99.90;;;;;;4990257;28;20523;-78
2022/05/03 08:48:45;;;;;;;20.92;3.80;;;10.30;99.90;;;;;;4999747;28;20061;-80
2022/05/03 08:51:15;;;;;;;16.90;3.22;;;10.90;99.90;;;;;;4985823;28;20046;-81
2022/05/03 08:53:41;;;;;;;21.75;3.20;;;10.50;99.90;;;;;;5002138;28;20046;-79
2022/05/03 08:56:06;;;;;;;24.92;3.35;;;10.80;99.90;;;;;;5005945;28;20057;-78
2022/05/03 08:58:33;;;;;;;19.35;4.28;;;10.50;99.90;;;;;;4967957;28;20140;-77
2022/05/03 09:00:59;;;;;;;18.45;3.25;;;10.70;99.90;;;;;;5009255;28;20481;-82
2022/05/03 09:03:24;;;;;;;28.80;4.18;;;10.90;99.90;;;;;;4996441;28;20041;-79
2022/05/03 09:05:52;;;;;;;25.85;4.05;;;10.80;99.90;;;;;;4973449;28;20618;-77
2022/05/03 09:08:23;;;;;;;27.73;4.57;;;11.20;99.90;;;;;;4980668;28;20389;-78
2022/05/03 09:10:49;;;;;;;26.45;3.47;;;10.90;99.90;;;;;;4990720;28;20069;-80
2022/05/03 09:13:22;;;;;;;23.08;3.70;;;11.10;99.90;;;;;;4995602;28;20045;-78
2022/05/03 09:15:56;;;;;;;19.10;3.25;;;11.20;99.90;;;;;;4994814;28;20049;-77
2022/05/03 09:18:25;;;;;;;13.68;3.15;;;11.20;99.90;;;;;;4983243;28;20046;-79
2022/05/03 09:23:51;;;;;;;17.52;3.00;;;11.30;99.90;;;;;;4979205;28;20039;-79
2022/05/03 09:26:28;;;;;;;16.05;3.08;;;11.40;99.90;;;;;;4981952;28;20084;-81
2022/05/03 09:28:55;;;;;;;15.57;2.92;;;11.40;99.90;;;;;;4996620;28;20197;-78
2022/05/03 09:31:31;;;;;;;15.95;3.10;;;11.70;99.90;;;;;;4999972;28;20092;-79
2022/05/03 09:33:59;;;;;;;16.17;3.30;;;11.80;99.90;;;;;;4993839;28;20058;-79
2022/05/03 09:36:25;;;;;;;10.95;2.50;;;11.70;99.90;;;;;;4990761;28;20603;-79
2022/05/03 09:38:53;;;;;;;9.10;2.53;;;11.60;99.90;;;;;;4976951;28;20057;-81
2022/05/03 09:41:19;;;;;;;11.90;2.72;;;11.70;99.90;;;;;;4998577;28;20123;-77
2022/05/03 09:44:08;;;;;;;12.55;2.50;;;11.80;99.90;;;;;;4988558;28;20065;-78
2022/05/03 09:46:54;;;;;;;11.73;2.40;;;12.00;99.90;;;;;;4996227;28;20507;-77
2022/05/03 09:49:21;;;;;;;14.30;2.20;;;11.90;99.90;;;;;;4993309;28;20050;-78
2022/05/03 09:51:48;;;;;;;9.35;2.35;;;12.10;99.90;;;;;;4997128;28;20033;-78
2022/05/03 09:54:14;;;;;;;13.43;2.53;;;11.90;99.90;;;;;;5013398;28;20318;-78
2022/05/03 09:56:42;;;;;;;8.10;2.22;;;12.20;99.90;;;;;;5015069;28;20049;-79
2022/05/03 09:59:09;;;;;;;16.20;2.40;;;12.00;99.90;;;;;;5008250;28;20474;-76
2022/05/03 10:01:35;;;;;;;17.45;2.90;;;12.30;99.90;;;;;;5009307;28;20045;-79
2022/05/03 10:04:01;;;;;;;23.77;2.95;;;12.40;99.90;;;;;;5005782;28;20060;-80
2022/05/03 10:06:29;;;;;;;12.10;2.40;;;12.50;99.90;;;;;;4990530;28;20050;-80
2022/05/03 10:08:55;;;;;;;8.52;1.83;;;12.80;99.90;;;;;;4982292;28;20125;-80
2022/05/03 10:11:26;;;;;;;9.23;2.17;;;12.70;99.90;;;;;;4993502;28;20058;-80
2022/05/03 10:13:53;;;;;;;10.02;2.20;;;12.60;99.90;;;;;;4995515;28;20191;-77
2022/05/03 10:21:56;;;;;;;6.05;1.83;;;12.80;99.90;;;;;;5002012;28;20095;-78
2022/05/03 10:24:23;;;;;;;11.13;2.28;;;12.90;99.90;;;;;;4990059;28;20041;-81
2022/05/03 10:26:52;;;;;;;8.77;1.95;;;12.80;99.90;;;;;;4973658;28;20058;-78
2022/05/03 10:29:19;;;;;;;10.90;2.50;;;13.00;99.90;;;;;;4979459;28;20049;-76
2022/05/03 10:32:16;;;;;;;9.18;2.25;;;13.00;99.90;;;;;;4985836;28;20045;-84
2022/05/03 10:34:47;;;;;;;14.45;2.00;;;12.90;99.90;;;;;;4987518;28;20054;-78
2022/05/03 10:37:18;;;;;;;11.75;2.17;;;12.60;99.90;;;;;;4998020;28;20070;-80
2022/05/03 10:39:55;;;;;;;14.48;2.58;;;13.10;99.90;;;;;;4997356;28;20120;-78
2022/05/03 10:42:26;;;;;;;7.75;1.88;;;12.80;99.90;;;;;;4999058;28;20425;-79
2022/05/03 10:44:52;;;;;;;9.93;1.92;;;12.60;99.90;;;;;;4997922;28;20347;-77
2022/05/03 10:47:20;;;;;;;6.40;2.20;;;12.40;99.90;;;;;;4982781;28;20105;-79
2022/05/03 10:50:20;;;;;;;9.88;2.45;;;12.80;99.90;;;;;;4981723;28;20077;-77
2022/05/03 10:53:02;;;;;;;8.82;2.40;;;12.90;99.90;;;;;;4986848;28;20042;-76
2022/05/03 10:55:37;;;;;;;8.20;1.77;;;13.00;99.90;;;;;;5001561;28;20141;-75
2022/05/03 10:58:25;;;;;;;10.00;2.08;;;12.80;99.90;;;;;;4984825;28;20057;-76
2022/05/03 11:01:10;;;;;;;8.88;1.88;;;12.50;99.90;;;;;;4996426;28;20084;-76
2022/05/03 11:03:48;;;;;;;8.93;1.98;;;12.80;99.90;;;;;;5003638;28;20050;-76
2022/05/03 11:06:21;;;;;;;11.63;1.75;;;12.80;99.90;;;;;;4981386;28;20061;-77
2022/05/03 11:14:18;;;;;;;9.15;2.13;;;12.60;99.90;;;;;;4995501;28;20034;-81
2022/05/03 11:17:03;;;;;;;12.10;1.95;;;12.60;99.90;;;;;;4980835;28;20134;-80
2022/05/03 11:19:30;;;;;;;6.38;1.90;;;12.80;99.90;;;;;;4997095;28;20054;-78
2022/05/03 11:21:58;;;;;;;7.97;1.95;;;12.80;99.90;;;;;;4978423;28;20054;-78
2022/05/03 11:24:32;;;;;;;11.80;1.60;;;12.70;99.90;;;;;;4981931;28;20086;-79
2022/05/03 11:27:04;;;;;;;10.85;2.10;;;13.00;99.90;;;;;;4968111;28;20056;-77
2022/05/03 11:29:38;;;;;;;11.02;2.00;;;12.80;99.90;;;;;;4997997;28;20046;-80
2022/05/03 11:32:07;;;;;;;10.43;2.03;;;12.90;99.90;;;;;;4998677;28;20161;-78
2022/05/03 11:34:34;;;;;;;7.28;1.90;;;13.10;99.90;;;;;;4999704;28;20117;-79
2022/05/03 11:37:01;;;;;;;8.80;2.00;;;13.40;99.90;;;;;;4994092;28;20393;-76
2022/05/03 11:39:27;;;;;;;11.65;1.98;;;13.80;99.90;;;;;;5004995;28;20053;-79
2022/05/03 11:41:53;;;;;;;14.10;2.20;;;13.70;99.90;;;;;;4993262;28;20362;-76
2022/05/03 11:44:19;;;;;;;6.32;1.73;;;13.70;99.90;;;;;;5009812;28;20080;-78
2022/05/03 11:46:48;;;;;;;7.32;1.67;;;13.90;99.90;;;;;;4996516;28;20349;-76
2022/05/03 11:49:15;;;;;;;7.05;1.92;;;13.30;99.90;;;;;;5011650;28;20066;-75
2022/05/03 11:57:24;;;;;;;11.10;2.50;;;13.20;99.90;;;;;;5004876;28;20400;-80
2022/05/03 11:59:51;;;;;;;7.88;2.00;;;13.20;99.90;;;;;;4992566;28;20037;-79
2022/05/03 12:02:35;;;;;;;10.77;2.20;;;13.20;99.90;;;;;;4976772;28;20496;-78
2022/05/03 12:05:07;;;;;;;9.45;2.03;;;13.10;99.90;;;;;;5009789;28;20053;-80
2022/05/03 12:07:45;;;;;;;9.38;2.33;;;12.90;99.90;;;;;;5003946;28;20050;-78
2022/05/03 12:10:43;;;;;;;9.20;2.20;;;12.60;99.90;;;;;;5011911;28;20455;-78
2022/05/03 12:13:22;;;;;;;8.13;1.95;;;12.70;99.90;;;;;;4899526;29;20138;-77
2022/05/03 12:15:49;;;;;;;7.70;2.08;;;12.70;99.90;;;;;;4897064;29;20096;-78
2022/05/03 12:18:17;;;;;;;7.40;2.05;;;12.50;99.90;;;;;;4875781;29;20049;-78
2022/05/03 12:20:51;;;;;;;13.93;2.45;;;13.00;99.90;;;;;;4888507;29;20044;-77
2022/05/03 12:23:19;;;;;;;10.13;2.53;;;13.50;99.90;;;;;;4889661;29;20052;-79
2022/05/03 12:25:54;;;;;;;8.25;1.85;;;13.70;99.90;;;;;;4890527;29;20134;-83
2022/05/03 12:28:33;;;;;;;8.65;2.00;;;13.80;99.90;;;;;;4890771;29;20062;-82
2022/05/03 12:30:59;;;;;;;13.00;2.33;;;13.80;99.90;;;;;;4889575;29;20063;-81
2022/05/03 12:33:27;;;;;;;8.70;2.17;;;13.50;99.90;;;;;;4893489;29;20044;-81
2022/05/03 12:35:53;;;;;;;11.38;2.17;;;13.80;99.90;;;;;;4896255;29;20064;-81
2022/05/03 12:38:22;;;;;;;12.05;2.15;;;13.90;99.90;;;;;;4911663;29;20040;-81
2022/05/03 12:40:56;;;;;;;9.85;2.47;;;14.30;99.90;;;;;;4911990;29;20124;-81
2022/05/03 12:43:27;;;;;;;11.20;2.25;;;13.80;99.90;;;;;;4926508;29;20040;-80
2022/05/03 12:46:01;;;;;;;8.45;2.13;;;13.70;99.90;;;;;;4929477;29;20067;-80
2022/05/03 12:48:28;;;;;;;11.10;2.53;;;13.40;99.90;;;;;;4928890;28;21560;-80
2022/05/03 12:50:55;;;;;;;9.02;2.20;;;13.40;99.90;;;;;;5015177;28;20061;-78
2022/05/03 12:53:26;;;;;;;10.32;1.92;;;13.50;99.90;;;;;;4995462;28;20058;-81
2022/05/03 12:55:53;;;;;;;11.70;2.30;;;14.10;99.90;;;;;;4987228;28;20050;-79
2022/05/03 12:58:21;;;;;;;10.88;2.33;;;13.90;99.90;;;;;;4975091;28;20133;-78
2022/05/03 13:00:51;;;;;;;10.93;2.60;;;13.80;99.90;;;;;;4985882;28;20137;-82
2022/05/03 13:03:17;;;;;;;11.00;2.13;;;13.80;99.90;;;;;;5002559;28;20101;-79
2022/05/03 13:05:43;;;;;;;11.23;2.40;;;13.70;99.90;;;;;;5006569;28;20491;-85
2022/05/03 13:08:09;;;;;;;9.13;2.40;;;13.30;99.90;;;;;;4992101;28;20057;-80
2022/05/03 13:10:34;;;;;;;10.25;2.45;;;13.50;99.90;;;;;;5002000;28;20117;-77
2022/05/03 13:13:02;;;;;;;9.93;2.33;;;13.90;99.90;;;;;;5011806;28;20054;-79
2022/05/03 13:15:28;;;;;;;10.27;2.40;;;13.90;99.90;;;;;;5009215;28;20177;-81
2022/05/03 13:17:53;;;;;;;7.63;2.20;;;14.20;99.90;;;;;;4996896;28;20084;-80
2022/05/03 13:20:20;;;;;;;11.55;2.35;;;14.40;99.90;;;;;;4973070;28;20062;-80
2022/05/03 13:22:46;;;;;;;13.43;2.10;;;14.30;99.90;;;;;;5008495;28;20116;-81
2022/05/03 13:25:17;;;;;;;8.70;2.28;;;14.10;99.90;;;;;;4992111;28;20202;-80
2022/05/03 13:27:43;;;;;;;12.75;2.38;;;14.10;99.90;;;;;;5013867;28;20053;-81
2022/05/03 13:30:09;;;;;;;9.77;1.95;;;14.10;99.90;;;;;;5000059;28;20046;-81
2022/05/03 13:32:34;;;;;;;12.02;2.83;;;14.70;99.90;;;;;;5000248;28;20382;-81
2022/05/03 13:41:25;;;;;;;23.30;6.43;;;15.70;99.90;;;;;;5037600;28;20119;-87
2022/05/03 13:43:51;;;;;;;9.35;2.63;;;16.20;99.90;;;;;;4986779;28;20057;-87
2022/05/03 13:46:17;;;;;;;9.27;2.20;;;16.10;99.90;;;;;;4982172;28;20046;-84
2022/05/03 13:48:44;;;;;;;11.07;2.33;;;15.60;99.90;;;;;;4986709;28;20354;-82
2022/05/03 13:51:10;;;;;;;14.10;2.40;;;14.90;99.90;;;;;;4997459;28;20434;-81